Flight Track Log - Related Links

Times and Time Zones

All times are in EDT time to prevent confusion due to time zone crossing. See the N319EE flight status page for this flight to view local times or setup timezone preferences in your user account.

Time Position Orientation Groundspeed Altitude Reporting Facility
EDT Latitude Longitude Course Direction KTS MPH feet Rate Location/Type
Tue 07:11:52 AM 43.6631 -70.4683 255° West 165 190 5,600  Level Boston Center
Tue 07:12:50 AM 43.6722 -70.5169 285° West 159 183 7,100 1,613 Climbing Boston Center
Tue 07:13:51 AM 43.6858 -70.5853 285° West 159 183 8,800 1,820 Climbing Boston Center
Tue 07:14:52 AM 43.6825 -70.6428 265° West 159 183 10,800 2,132 Climbing Boston Center
Tue 07:15:00 AM 43.6287 -70.7253 257° West  Level Estimated
Tue 07:15:52 AM 43.6794 -70.7089 266° West 159 183 13,100  Level Boston Center
Tue 07:16:00 AM 43.6251 -70.8085 255° West  Level Estimated
Tue 07:16:50 AM 43.6781 -70.7636 268° West 159 183 15,000  Level Boston Center
Tue 07:17:50 AM 43.6728 -70.8297 264° West 159 183 16,100 545 Climbing Boston Center
Tue 07:18:51 AM 43.6697 -70.8986 267° West 184 212 16,100  Level Boston Center
Tue 07:19:51 AM 43.6644 -70.9878 265° West 214 246 16,100 -50 Level Boston Center
Tue 07:20:51 AM 43.6614 -71.0625 267° West 219 252 16,000 -50 Descending Boston Center
Tue 07:21:51 AM 43.6561 -71.1489 265° West 219 252 16,000 50 Level Boston Center
Tue 07:22:51 AM 43.6528 -71.2233 266° West 219 252 16,100 50 Climbing Boston Center
Tue 07:23:51 AM 43.6472 -71.3039 265° West 219 252 16,100  Level Boston Center
Tue 07:24:51 AM 43.6419 -71.3928 265° West 219 252 16,100  Level Boston Center
Tue 07:25:51 AM 43.6403 -71.4647 268° West 219 252 16,100  Level Boston Center
Tue 07:26:53 AM 43.6350 -71.5536 265° West 219 252 16,100  Level Boston Center
Tue 07:27:50 AM 43.6311 -71.6225 266° West 219 252 16,100  Level Boston Center
Tue 07:28:50 AM 43.6256 -71.7117 265° West 219 252 16,100  Level Boston Center
Tue 07:29:52 AM 43.6219 -71.7833 266° West 219 252 16,100  Level Boston Center
Tue 07:30:50 AM 43.6139 -71.8667 262° West 213 245 16,100  Level Boston Center
Tue 07:31:50 AM 43.6122 -71.9469 268° West 213 245 16,100  Level Boston Center
Tue 07:32:52 AM 43.6083 -72.0214 266° West 218 251 16,100  Level Boston Center
Tue 07:33:51 AM 43.6025 -72.0989 264° West 218 251 16,100  Level Boston Center
Tue 07:34:50 AM 43.5964 -72.1822 264° West 213 245 16,100  Level Boston Center
Tue 07:35:53 AM 43.5922 -72.2594 266° West 218 251 16,100  Level Boston Center
Tue 07:36:51 AM 43.5883 -72.3369 266° West 218 251 16,100  Level Boston Center
Tue 07:37:52 AM 43.5819 -72.4172 264° West 218 251 16,100  Level Boston Center
Tue 07:38:52 AM 43.5778 -72.4975 266° West 218 251 16,100  Level Boston Center
Tue 07:39:51 AM 43.5717 -72.5778 264° West 218 251 16,100  Level Boston Center
Tue 07:40:52 AM 43.5672 -72.6578 266° West 218 251 16,100  Level Boston Center
Tue 07:41:52 AM 43.5628 -72.7381 266° West 218 251 16,100  Level Boston Center
Tue 07:42:50 AM 43.5564 -72.8183 264° West 218 251 16,100  Level Boston Center
Tue 07:43:51 AM 43.5500 -72.9014 264° West 218 251 16,100  Level Boston Center
Tue 07:44:52 AM 43.5453 -72.9842 266° West 218 251 16,100  Level Boston Center
Tue 07:45:52 AM 43.5386 -73.0531 262° West 218 251 16,100  Level Boston Center
Tue 07:46:50 AM 43.5319 -73.1331 263° West 218 251 16,100  Level Boston Center
Tue 07:47:50 AM 43.5272 -73.2133 265° West 218 251 16,100  Level Boston Center
Tue 07:48:51 AM 43.5225 -73.2992 266° West 218 251 16,100  Level Boston Center
Tue 07:49:51 AM 43.5136 -73.3819 262° West 218 251 16,100  Level Boston Center
Tue 07:50:50 AM 43.5086 -73.4619 265° West 218 251 16,100  Level Boston Center
Tue 07:51:51 AM 43.5017 -73.5419 263° West 218 251 16,100  Level Boston Center
Tue 07:52:50 AM 43.4967 -73.6278 265° West 218 251 16,100  Level Boston Center
Tue 07:53:50 AM 43.4894 -73.7106 263° West 218 251 16,100  Level Boston Center
Tue 07:54:51 AM 43.4822 -73.7936 263° West 218 251 16,100  Level Boston Center
Tue 07:55:52 AM 43.4772 -73.8792 265° West 218 251 16,100  Level Boston Center
Tue 07:56:50 AM 43.4719 -73.9622 265° West 218 251 16,100  Level Boston Center
Tue 07:57:51 AM 43.4625 -74.0478 261° West 218 251 16,100  Level Boston Center
Tue 07:58:52 AM 43.4547 -74.1447 264° West 228 262 16,100  Level Boston Center
Tue 07:59:52 AM 43.4492 -74.2333 265° West 233 268 16,100  Level Boston Center
Tue 08:00:51 AM 43.4417 -74.3189 263° West 233 268 16,100  Level Boston Center
Tue 08:01:51 AM 43.4339 -74.4044 263° West 233 268 16,100  Level Boston Center
Tue 08:02:52 AM 43.4283 -74.4900 265° West 233 268 16,100  Level Boston Center
Tue 08:03:52 AM 43.4203 -74.5783 263° West 238 274 16,100 -51 Level Boston Center
Tue 08:04:50 AM 43.4144 -74.6639 265° West 238 274 16,000 -50 Descending Boston Center
Tue 08:05:52 AM 43.4067 -74.7522 263° West 238 274 16,000  Level Boston Center
Tue 08:06:51 AM 43.3986 -74.8375 263° West 238 274 16,000  Level Boston Center
Tue 08:07:51 AM 43.3925 -74.9231 264° West 238 274 16,000  Level Boston Center
Tue 08:08:51 AM 43.3844 -75.0114 263° West 238 274 16,000  Level Boston Center
Tue 08:09:50 AM 43.3783 -75.0967 264° West 233 268 16,000  Level Boston Center
Tue 08:10:51 AM 43.3722 -75.1794 264° West 233 268 16,000  Level Boston Center
Tue 08:11:51 AM 43.3636 -75.2703 263° West 238 274 16,000  Level Boston Center
Tue 08:12:52 AM 43.3575 -75.3472 264° West 238 274 16,000  Level Boston Center
Tue 08:13:51 AM 43.3511 -75.4356 264° West 238 274 16,000  Level Boston Center
Tue 08:14:51 AM 43.3425 -75.5206 262° West 233 268 16,000  Level Boston Center
Tue 08:15:52 AM 43.3358 -75.6089 264° West 233 268 16,000  Level Boston Center
Tue 08:16:50 AM 43.3272 -75.6942 262° West 233 268 16,000  Level Boston Center
Tue 08:17:51 AM 43.3206 -75.7822 264° West 238 274 16,000  Level Boston Center
Tue 08:18:52 AM 43.3117 -75.8703 262° West 238 274 16,000  Level Boston Center
Tue 08:19:53 AM 43.3050 -75.9583 264° West 238 274 16,000  Level Boston Center
Tue 08:21:56 AM 43.2853 -76.1461 262° West 233 268 16,000  Level Cleveland Center
Tue 08:22:58 AM 43.2767 -76.2339 262° West 233 268 16,000  Level Cleveland Center
Tue 08:24:00 AM 43.2689 -76.3231 263° West 233 268 16,000  Level Cleveland Center
Tue 08:25:02 AM 43.2606 -76.4122 263° West 236 272 16,000  Level Cleveland Center
Tue 08:26:04 AM 43.2522 -76.5017 263° West 237 273 16,000  Level Cleveland Center
Tue 08:27:06 AM 43.2419 -76.6092 263° West 236 272 16,000 -242 Level Cleveland Center
Tue 08:28:08 AM 43.2328 -76.6997 262° West 239 275 15,500 -507 Descending Cleveland Center
Tue 08:28:17 AM 43.2325 -76.7144 269° West 242 278 15,400 -1,714 Descending Cleveland Center
Tue 08:28:29 AM 43.2297 -76.7369 260° West 247 284 14,900 -2,038 Descending Cleveland Center
Tue 08:29:10 AM 43.2225 -76.7989 261° West 260 299 13,600 -1,869 Descending Cleveland Center
Tue 08:29:30 AM 43.2203 -76.8389 266° West 272 313 13,000 -1,548 Descending Cleveland Center
Tue 08:30:12 AM 43.2136 -76.9014 262° West 270 311 12,000 -1,475 Descending Cleveland Center
Tue 08:30:31 AM 43.2106 -76.9408 264° West 269 310 11,500 -1,355 Descending Cleveland Center
Tue 08:31:14 AM 43.2025 -77.0078 261° West 265 305 10,600 -1,200 Descending Cleveland Center
Tue 08:31:31 AM 43.1994 -77.0394 262° West 264 304 10,300 -1,524 Descending Cleveland Center
Tue 08:32:17 AM 43.1931 -77.1061 263° West 261 300 9,000 -1,770 Descending Cleveland Center
Tue 08:32:32 AM 43.1900 -77.1383 263° West 258 297 8,500 -1,548 Descending Cleveland Center
Tue 08:33:19 AM 43.1833 -77.2036 262° West 259 298 7,400 -2,200 Descending Cleveland Center
Tue 08:33:32 AM 43.1797 -77.2431 263° West 259 298 6,300 -2,419 Descending Cleveland Center
Tue 08:34:21 AM 43.1742 -77.2978 262° West 253 291 4,900 -2,459 Descending Cleveland Center
Tue 08:34:33 AM 43.1692 -77.3358 260° West 246 283 3,800 -1,839 Descending Cleveland Center
Tue 08:35:23 AM 43.1597 -77.4086 260° West 249 287 3,000 -787 Descending Cleveland Center
Tue 08:35:34 AM 43.1583 -77.4286 265° West 243 280 3,000 -387 Level Cleveland Center
Tue 08:36:25 AM 43.1517 -77.4942 262° West 236 272 2,600 -600 Descending Cleveland Center
Tue 08:36:34 AM 43.1508 -77.5108 266° West 217 250 2,400 -581 Descending Cleveland Center
Tue 08:37:27 AM 43.1453 -77.5731 263° West 217 250 2,000 -492 Descending Cleveland Center
Tue 08:37:35 AM 43.1422 -77.5867 253° West 186 214 1,900 -871 Descending Cleveland Center
Tue 08:38:29 AM 43.1314 -77.6278 250° West 169 194 1,100 -900 Descending Cleveland Center
Tue 08:38:35 AM 43.1286 -77.6381 250° West 125 144 1,000 -387 Descending Cleveland Center
Tue 08:39:31 AM 43.1139 -77.6792 244° Southwest 154 177 700 -321 Descending Cleveland Center
Tue 08:41:00 AM 43.1167 -77.6667 North  Level FlightAware Approximate

Login

Don't have an account? Register now (free) for customized features, flight alerts, and more!